Time;durP1;ratioP1;P1;durP2;ratioP2;P2;SDS_P1;SDS_P2;PMS_P1;PMS_P2;Temp;Humidity;BMP_temperature;BMP_pressure;BME280_temperature;BME280_humidity;BME280_pressure;Samples;Min_cycle;Max_cycle;Signal;HPM_P1;HPM_P2
2021/12/03 00:00:50;;;;;;;11.73;6.32;;;;;;;3.74;80.31;93619.34;5031403;28;20204;-75
2021/12/03 00:03:17;;;;;;;6.05;3.80;;;;;;;4.09;78.14;93606.88;5024924;28;20229;-74
2021/12/03 00:05:46;;;;;;;9.55;4.28;;;;;;;4.11;78.00;93624.19;5024463;28;20208;-74
2021/12/03 00:08:13;;;;;;;3.60;2.13;;;;;;;4.14;77.82;93594.09;5018337;28;20560;-75
2021/12/03 00:10:42;;;;;;;6.97;3.33;;;;;;;4.08;78.29;93586.53;5031768;28;20216;-74
2021/12/03 00:13:10;;;;;;;13.20;4.43;;;;;;;3.86;79.16;93585.50;5018346;28;20234;-75
2021/12/03 00:15:37;;;;;;;10.00;4.03;;;;;;;3.84;80.03;93592.28;5031016;28;20594;-75
2021/12/03 00:18:05;;;;;;;8.57;4.68;;;;;;;3.72;80.14;93567.97;5031401;28;20215;-75
2021/12/03 00:20:35;;;;;;;7.88;4.30;;;;;;;3.76;80.16;93601.09;5030973;28;20211;-75
2021/12/03 00:23:05;;;;;;;5.97;3.75;;;;;;;3.75;79.78;93613.69;5030690;28;20232;-75
2021/12/03 00:25:33;;;;;;;13.60;4.47;;;;;;;3.76;79.83;93585.00;5017147;28;20212;-74
2021/12/03 00:27:59;;;;;;;3.22;2.15;;;;;;;4.12;79.60;93619.63;5022589;28;20213;-74
2021/12/03 00:30:28;;;;;;;5.15;3.40;;;;;;;4.75;77.72;93584.22;5024980;28;20197;-73
2021/12/03 00:32:55;;;;;;;5.40;1.80;;;;;;;6.52;72.60;93552.25;5020120;28;20648;-73
2021/12/03 00:35:22;;;;;;;4.15;1.98;;;;;;;6.46;71.20;93575.06;5041256;28;20207;-75
2021/12/03 00:37:50;;;;;;;7.57;2.83;;;;;;;6.14;72.80;93588.09;5030888;28;20617;-75
2021/12/03 00:40:21;;;;;;;4.40;2.88;;;;;;;6.05;73.11;93577.38;5017449;28;20208;-75
2021/12/03 00:42:48;;;;;;;7.50;3.58;;;;;;;5.94;73.11;93602.25;5020906;28;20248;-74
2021/12/03 00:45:15;;;;;;;12.68;7.40;;;;;;;5.69;73.96;93604.69;5024731;28;20224;-74
2021/12/03 00:47:43;;;;;;;7.53;3.60;;;;;;;5.76;74.22;93601.50;5022242;28;20207;-75
2021/12/03 00:50:15;;;;;;;9.40;4.80;;;;;;;5.57;74.13;93609.16;5016726;28;20196;-75
2021/12/03 00:52:42;;;;;;;7.15;2.58;;;;;;;5.77;73.60;93580.78;5018931;28;20197;-74
2021/12/03 00:55:10;;;;;;;8.80;3.78;;;;;;;6.04;72.40;93575.00;5029540;28;20244;-74
2021/12/03 00:57:38;;;;;;;6.80;4.05;;;;;;;5.56;73.97;93564.63;5038636;28;20203;-75
2021/12/03 01:00:08;;;;;;;2.85;1.88;;;;;;;6.56;71.79;93577.38;5030852;28;20612;-73
2021/12/03 01:02:35;;;;;;;3.15;2.30;;;;;;;7.07;69.15;93560.78;5030666;28;20338;-76
2021/12/03 01:05:04;;;;;;;2.00;1.52;;;;;;;6.81;70.29;93581.78;5030612;28;20762;-74
2021/12/03 01:07:31;;;;;;;3.80;2.22;;;;;;;6.75;70.44;93577.69;5030102;28;20208;-76
2021/12/03 01:09:58;;;;;;;6.65;2.70;;;;;;;6.71;70.65;93582.16;5018804;28;20200;-76
2021/12/03 01:12:25;;;;;;;2.28;1.38;;;;;;;7.68;67.35;93582.47;5030099;28;20262;-74
2021/12/03 01:14:52;;;;;;;3.10;1.90;;;;;;;7.81;66.51;93572.50;5030098;28;20205;-77
2021/12/03 01:17:19;;;;;;;6.60;2.50;;;;;;;7.46;67.68;93574.81;5030350;28;20196;-77
2021/12/03 01:19:46;;;;;;;3.45;1.02;;;;;;;8.28;65.31;93564.75;5022404;28;20224;-77
2021/12/03 01:22:14;;;;;;;3.65;1.02;;;;;;;8.76;64.31;93566.59;5025570;28;20228;-77
2021/12/03 01:24:41;;;;;;;2.33;1.20;;;;;;;9.74;61.02;93549.91;5030126;28;20236;-77
2021/12/03 01:27:08;;;;;;;1.55;1.25;;;;;;;9.86;59.64;93541.72;5028719;28;20200;-77
2021/12/03 01:29:35;;;;;;;3.10;1.80;;;;;;;9.46;61.36;93583.19;5018887;28;20204;-77
2021/12/03 01:32:02;;;;;;;2.20;1.42;;;;;;;9.33;61.03;93584.38;5030447;28;20251;-77
2021/12/03 01:34:29;;;;;;;1.63;1.42;;;;;;;9.98;58.37;93566.75;5039453;28;20188;-76
2021/12/03 01:36:56;;;;;;;2.25;1.42;;;;;;;10.19;58.38;93527.84;5038320;28;20659;-75
2021/12/03 01:39:24;;;;;;;1.10;1.00;;;;;;;10.15;59.31;93510.72;5034165;28;20200;-74
2021/12/03 01:41:51;;;;;;;2.70;1.33;;;;;;;10.19;59.48;93533.28;5020759;28;20215;-76
2021/12/03 01:44:18;;;;;;;3.10;1.30;;;;;;;10.35;58.52;93536.75;5034681;28;20749;-76
2021/12/03 01:46:45;;;;;;;1.85;1.38;;;;;;;10.36;58.11;93530.19;5034067;28;20216;-76
2021/12/03 01:49:15;;;;;;;2.78;1.60;;;;;;;10.07;59.18;93546.88;5034159;28;20208;-76
2021/12/03 01:51:42;;;;;;;3.28;1.65;;;;;;;10.16;58.84;93555.59;5021045;28;20224;-76
2021/12/03 01:54:09;;;;;;;4.90;1.90;;;;;;;10.14;58.93;93563.25;5023491;28;20201;-77
2021/12/03 01:56:39;;;;;;;3.20;1.50;;;;;;;10.03;59.17;93514.31;5027358;28;20236;-75
2021/12/03 01:59:07;;;;;;;2.50;1.48;;;;;;;10.29;58.91;93506.44;5034048;28;20204;-76
2021/12/03 02:01:35;;;;;;;4.88;1.75;;;;;;;9.99;59.52;93503.41;5033995;28;20204;-77
2021/12/03 02:04:03;;;;;;;4.95;1.42;;;;;;;10.08;60.26;93514.06;5033453;28;20274;-77
2021/12/03 02:06:31;;;;;;;5.13;1.35;;;;;;;10.11;59.97;93518.00;5033638;28;20815;-77
2021/12/03 02:08:59;;;;;;;3.85;1.55;;;;;;;9.91;60.74;93550.38;5033787;28;20254;-75
2021/12/03 02:11:26;;;;;;;5.18;1.67;;;;;;;9.57;62.03;93529.41;5019638;28;20737;-77
2021/12/03 02:13:54;;;;;;;4.55;2.35;;;;;;;9.55;61.58;93550.63;5020495;28;20251;-76
2021/12/03 02:16:22;;;;;;;2.35;1.70;;;;;;;9.40;62.23;93508.13;5032551;28;20255;-77
2021/12/03 02:18:49;;;;;;;2.88;1.50;;;;;;;9.88;60.50;93534.84;5033346;28;20208;-76
2021/12/03 02:21:18;;;;;;;2.70;1.50;;;;;;;10.51;58.31;93513.13;5021043;28;20224;-76
2021/12/03 02:23:46;;;;;;;3.22;1.20;;;;;;;10.22;59.59;93562.34;5020330;28;20201;-74
2021/12/03 02:26:13;;;;;;;2.25;1.10;;;;;;;10.43;58.57;93478.91;5025994;28;20525;-74
2021/12/03 02:28:42;;;;;;;4.35;1.92;;;;;;;10.02;60.05;93493.03;5027233;28;20200;-75
2021/12/03 02:31:10;;;;;;;1.85;1.33;;;;;;;9.65;61.42;93514.94;5033618;28;20204;-74
2021/12/03 02:33:37;;;;;;;1.55;1.10;;;;;;;9.84;60.82;93516.97;5019797;28;20568;-74
2021/12/03 02:36:06;;;;;;;2.03;1.38;;;;;;;9.84;60.73;93495.31;5022282;28;20195;-73
2021/12/03 02:38:34;;;;;;;2.15;1.30;;;;;;;9.88;60.76;93509.69;5019451;28;20639;-74
2021/12/03 02:41:02;;;;;;;3.97;1.38;;;;;;;10.04;60.31;93505.06;5033223;28;20212;-75
2021/12/03 02:43:29;;;;;;;3.20;2.63;;;;;;;9.93;61.20;93504.81;5033182;28;20220;-74
2021/12/03 02:45:57;;;;;;;3.13;1.63;;;;;;;9.71;61.14;93502.72;5022854;28;20287;-73
2021/12/03 02:48:25;;;;;;;1.70;1.20;;;;;;;9.89;60.77;93514.75;5030130;28;20228;-74
2021/12/03 02:50:52;;;;;;;1.98;1.27;;;;;;;10.43;59.01;93499.75;5032954;28;20209;-73
2021/12/03 02:53:19;;;;;;;2.63;1.30;;;;;;;10.27;59.20;93507.91;5032880;28;20207;-74
2021/12/03 02:55:47;;;;;;;3.28;1.45;;;;;;;10.21;59.63;93503.94;5032469;28;20236;-73
2021/12/03 02:58:14;;;;;;;7.35;1.95;;;;;;;9.72;61.00;93504.28;5041551;28;20778;-74
2021/12/03 03:00:43;;;;;;;4.43;1.83;;;;;;;9.70;61.26;93511.22;5032427;28;20556;-72
2021/12/03 03:03:10;;;;;;;2.33;1.42;;;;;;;9.42;61.84;93516.69;5033003;28;20266;-74
2021/12/03 03:05:36;;;;;;;3.63;1.75;;;;;;;9.51;62.22;93537.00;5032574;28;20291;-73
2021/12/03 03:08:04;;;;;;;2.10;1.58;;;;;;;9.22;63.10;93537.38;5019030;28;20235;-73
2021/12/03 03:10:36;;;;;;;1.63;1.40;;;;;;;9.23;62.55;93531.63;5032351;28;20262;-74
2021/12/03 03:13:04;;;;;;;1.63;1.08;;;;;;;9.91;60.20;93536.84;5032931;28;20197;-74
2021/12/03 03:15:31;;;;;;;5.20;1.65;;;;;;;9.71;60.93;93542.50;5028778;28;20204;-73
2021/12/03 03:18:08;;;;;;;3.50;1.50;;;;;;;9.54;61.26;93517.41;5032631;28;20211;-73
2021/12/03 03:20:34;;;;;;;3.65;1.60;;;;;;;9.34;62.41;93537.31;5019157;28;20250;-74
2021/12/03 03:23:01;;;;;;;3.15;2.13;;;;;;;9.05;63.52;93540.38;5032453;28;20278;-73
2021/12/03 03:25:28;;;;;;;3.42;1.48;;;;;;;8.86;63.14;93527.53;5031765;28;20239;-73
2021/12/03 03:27:55;;;;;;;2.45;1.60;;;;;;;8.71;63.91;93530.97;5032060;28;20307;-73
2021/12/03 03:30:24;;;;;;;5.43;1.73;;;;;;;8.70;63.84;93521.28;5031791;28;20239;-73
2021/12/03 03:32:51;;;;;;;6.57;2.00;;;;;;;8.50;65.06;93539.22;5031646;28;20258;-74
2021/12/03 03:35:19;;;;;;;3.67;1.73;;;;;;;8.23;66.03;93532.59;5041109;28;20675;-74
2021/12/03 03:37:46;;;;;;;2.80;1.67;;;;;;;8.45;65.03;93523.28;5031375;28;20208;-74
2021/12/03 03:40:13;;;;;;;4.65;1.63;;;;;;;8.36;65.20;93511.81;5017803;28;20698;-74
2021/12/03 03:42:40;;;;;;;2.92;1.63;;;;;;;9.02;63.09;93514.84;5032592;28;20204;-71
2021/12/03 03:45:13;;;;;;;5.07;2.35;;;;;;;8.97;62.74;93534.00;5032236;28;20234;-72
2021/12/03 03:47:42;;;;;;;4.63;2.15;;;;;;;8.71;63.22;93528.25;5021700;28;20225;-73
2021/12/03 03:50:11;;;;;;;1.60;1.35;;;;;;;8.54;64.38;93540.13;5029553;28;20208;-73
2021/12/03 03:52:39;;;;;;;3.13;1.67;;;;;;;8.47;63.13;93537.22;5031925;28;20211;-73
2021/12/03 03:55:07;;;;;;;4.78;1.80;;;;;;;8.34;63.51;93541.03;5018473;28;20760;-71
2021/12/03 03:57:34;;;;;;;4.10;2.20;;;;;;;8.12;64.16;93559.25;5033966;28;20253;-72
2021/12/03 04:00:01;;;;;;;3.55;2.10;;;;;;;7.98;64.37;93558.00;5032423;28;20212;-73
2021/12/03 04:02:28;;;;;;;4.90;2.40;;;;;;;7.92;65.07;93553.97;5019461;28;20201;-73
2021/12/03 04:04:56;;;;;;;2.85;2.33;;;;;;;7.95;64.78;93537.13;5030869;28;20223;-74
2021/12/03 04:07:23;;;;;;;4.47;2.33;;;;;;;8.17;64.46;93550.94;5031585;28;20208;-73
2021/12/03 04:09:50;;;;;;;6.65;2.28;;;;;;;8.07;64.86;93553.28;5018185;28;20201;-74
2021/12/03 04:12:17;;;;;;;5.13;2.40;;;;;;;7.80;65.54;93563.63;5018383;28;20209;-73
2021/12/03 04:14:43;;;;;;;3.47;2.10;;;;;;;7.93;65.41;93552.84;5018145;28;20192;-72
2021/12/03 04:17:10;;;;;;;5.68;2.65;;;;;;;7.93;65.00;93544.75;5031288;28;20200;-74
2021/12/03 04:19:37;;;;;;;6.25;2.60;;;;;;;8.22;64.68;93552.59;5024542;28;20215;-73
2021/12/03 04:22:06;;;;;;;4.82;2.03;;;;;;;8.28;64.25;93540.47;5024567;28;20224;-73
2021/12/03 04:24:33;;;;;;;3.25;1.83;;;;;;;8.74;63.58;93546.47;5018946;28;20572;-73
2021/12/03 04:27:00;;;;;;;2.47;1.95;;;;;;;8.35;63.88;93524.50;5017744;28;20201;-73
2021/12/03 04:29:27;;;;;;;3.70;2.10;;;;;;;8.15;64.73;93547.00;5023354;28;20267;-73
2021/12/03 04:31:54;;;;;;;3.72;2.20;;;;;;;7.91;65.54;93560.50;5024929;28;20211;-73
2021/12/03 04:34:21;;;;;;;3.78;1.98;;;;;;;7.95;65.13;93554.06;5030451;28;20543;-72
2021/12/03 04:36:47;;;;;;;3.40;2.58;;;;;;;7.81;64.96;93557.09;5034631;28;20211;-73
2021/12/03 04:39:16;;;;;;;8.65;3.50;;;;;;;7.83;65.91;93557.56;5031688;28;20200;-71
2021/12/03 04:41:43;;;;;;;4.45;2.80;;;;;;;7.83;65.56;93560.25;5039376;28;20257;-72
2021/12/03 04:44:10;;;;;;;4.28;2.97;;;;;;;7.76;65.95;93573.53;5038821;28;20204;-72
2021/12/03 04:46:37;;;;;;;4.65;2.35;;;;;;;7.61;66.51;93576.06;5037809;28;20227;-71
2021/12/03 04:49:03;;;;;;;4.07;2.67;;;;;;;7.88;65.65;93575.44;5040595;28;20204;-74
2021/12/03 04:51:30;;;;;;;5.47;2.47;;;;;;;8.40;63.95;93562.06;5034761;28;20196;-73
2021/12/03 04:53:57;;;;;;;3.10;1.95;;;;;;;8.48;64.33;93563.84;5039362;28;20198;-72
2021/12/03 04:56:25;;;;;;;3.45;1.75;;;;;;;8.54;64.27;93578.69;5037233;28;20636;-72
2021/12/03 04:58:52;;;;;;;7.55;3.00;;;;;;;8.61;63.47;93580.03;5038267;28;20266;-73
2021/12/03 05:01:19;;;;;;;1.20;1.10;;;;;;;9.31;61.55;93580.44;5039608;28;20204;-74
2021/12/03 05:03:45;;;;;;;3.08;1.50;;;;;;;9.27;61.98;93574.97;5039406;28;20716;-74
2021/12/03 05:06:15;;;;;;;7.53;4.13;;;;;;;9.44;61.79;93590.88;5036725;28;20481;-75
2021/12/03 05:08:42;;;;;;;3.93;2.60;;;;;;;9.02;62.06;93589.72;5037388;28;21119;-76
2021/12/03 05:11:10;;;;;;;3.58;2.33;;;;;;;8.65;62.84;93580.91;5037667;28;20744;-74
2021/12/03 05:13:39;;;;;;;4.80;2.63;;;;;;;8.27;64.43;93579.34;5043838;28;20200;-74
2021/12/03 05:16:06;;;;;;;5.53;3.17;;;;;;;8.18;64.30;93567.91;5041990;28;20208;-77
2021/12/03 05:18:33;;;;;;;8.80;2.92;;;;;;;8.15;64.42;93603.66;5037999;28;20211;-75
2021/12/03 05:21:02;;;;;;;3.85;2.30;;;;;;;8.04;64.96;93597.13;5037851;28;20219;-76
2021/12/03 05:23:32;;;;;;;3.33;2.63;;;;;;;8.22;64.29;93579.56;5042373;28;20206;-75
2021/12/03 05:26:00;;;;;;;4.82;2.55;;;;;;;8.30;65.41;93567.91;5038351;28;20628;-75
2021/12/03 05:28:29;;;;;;;2.85;2.30;;;;;;;8.23;65.93;93596.56;5037129;28;20200;-76
2021/12/03 05:30:57;;;;;;;5.50;2.75;;;;;;;8.40;64.75;93613.34;5037713;28;20191;-76
2021/12/03 05:33:24;;;;;;;5.25;2.25;;;;;;;8.76;63.69;93603.59;5039287;28;20229;-76
2021/12/03 05:35:51;;;;;;;3.05;1.90;;;;;;;9.14;62.47;93576.94;5041546;28;20203;-75
2021/12/03 05:38:18;;;;;;;3.55;1.85;;;;;;;9.37;61.96;93627.72;5038327;28;20249;-73
2021/12/03 05:40:44;;;;;;;2.67;1.90;;;;;;;9.00;61.63;93606.25;5039856;28;20197;-76
2021/12/03 05:43:11;;;;;;;4.82;2.60;;;;;;;8.85;63.42;93585.38;5039904;28;20201;-76
2021/12/03 05:45:38;;;;;;;6.18;2.22;;;;;;;8.76;63.32;93625.19;5022971;28;20292;-76
2021/12/03 05:48:07;;;;;;;3.58;1.55;;;;;;;9.02;63.08;93622.88;5022998;28;20211;-74
2021/12/03 05:50:34;;;;;;;4.05;1.70;;;;;;;10.33;60.80;93614.78;5017995;28;20208;-74
2021/12/03 05:53:01;;;;;;;2.60;1.30;;;;;;;10.38;60.13;93595.59;5022089;28;20196;-75
2021/12/03 05:55:29;;;;;;;5.47;1.80;;;;;;;10.16;59.63;93604.28;5035798;28;20691;-75
2021/12/03 05:57:57;;;;;;;3.53;2.10;;;;;;;9.58;60.78;93644.53;5040120;28;20242;-76
2021/12/03 06:00:26;;;;;;;7.63;2.55;;;;;;;9.35;61.13;93624.59;5037797;28;20203;-77
2021/12/03 06:02:53;;;;;;;2.88;2.28;;;;;;;9.30;61.71;93627.53;5037961;28;20699;-77
2021/12/03 06:05:22;;;;;;;6.45;2.42;;;;;;;9.52;61.13;93624.28;5046361;28;20224;-77
2021/12/03 06:07:49;;;;;;;3.63;2.05;;;;;;;9.57;60.76;93610.50;5029692;28;20196;-77
2021/12/03 06:10:16;;;;;;;4.03;2.28;;;;;;;9.53;61.77;93631.28;5029992;28;20671;-77
2021/12/03 06:12:43;;;;;;;6.03;2.90;;;;;;;9.31;62.08;93634.50;5031617;28;20261;-78
2021/12/03 06:15:10;;;;;;;7.75;3.75;;;;;;;9.08;62.50;93631.53;5037694;28;20242;-78
2021/12/03 06:17:37;;;;;;;7.20;3.70;;;;;;;9.35;62.06;93640.81;5039236;28;20697;-78
2021/12/03 06:20:07;;;;;;;7.68;3.83;;;;;;;9.68;61.33;93635.94;5040494;28;20204;-80
2021/12/03 06:22:36;;;;;;;4.82;2.50;;;;;;;9.96;61.65;93644.78;5029108;28;20205;-79
2021/12/03 06:25:03;;;;;;;5.07;2.35;;;;;;;9.94;60.04;93636.22;5024734;28;20806;-80
2021/12/03 06:27:31;;;;;;;5.47;2.97;;;;;;;9.66;61.61;93649.00;5020094;28;20208;-80
2021/12/03 06:29:59;;;;;;;13.70;5.78;;;;;;;9.57;61.61;93621.31;5033329;28;20196;-82
2021/12/03 06:32:26;;;;;;;4.95;2.30;;;;;;;9.43;63.00;93637.19;5028177;28;20205;-78
2021/12/03 06:34:53;;;;;;;4.47;2.40;;;;;;;9.28;62.81;93630.59;5035707;28;20670;-81
2021/12/03 06:37:20;;;;;;;6.10;3.08;;;;;;;9.21;63.64;93636.56;5034056;28;20296;-80
2021/12/03 06:39:48;;;;;;;10.00;3.83;;;;;;;9.29;62.88;93647.59;5020886;28;20279;-79
2021/12/03 06:42:15;;;;;;;4.90;2.20;;;;;;;9.84;61.47;93663.78;5026516;28;20209;-78
2021/12/03 06:44:42;;;;;;;3.90;2.03;;;;;;;9.85;61.35;93654.53;5025744;28;20728;-81
2021/12/03 06:47:09;;;;;;;5.03;2.33;;;;;;;9.58;62.19;93672.34;5028139;28;20637;-80
2021/12/03 06:49:36;;;;;;;6.43;2.38;;;;;;;9.49;62.85;93679.03;5046279;28;20250;-80
2021/12/03 06:52:06;;;;;;;8.10;3.92;;;;;;;9.51;62.27;93671.38;5034346;28;20208;-79
2021/12/03 06:54:34;;;;;;;9.27;5.10;;;;;;;9.41;63.72;93678.06;5031341;28;20192;-79
2021/12/03 06:57:06;;;;;;;4.40;2.40;;;;;;;9.45;63.34;93678.13;5018563;28;20203;-78
2021/12/03 06:59:36;;;;;;;5.97;3.38;;;;;;;9.59;62.51;93689.34;5028280;28;20203;-82
2021/12/03 07:02:04;;;;;;;10.35;4.88;;;;;;;9.66;61.74;93675.25;5042683;28;20198;-81
2021/12/03 07:04:31;;;;;;;7.25;4.40;;;;;;;9.77;61.80;93674.41;5036654;28;20635;-80
2021/12/03 07:06:58;;;;;;;5.28;3.22;;;;;;;9.79;61.31;93693.78;5032570;28;20278;-82
2021/12/03 07:09:25;;;;;;;3.47;2.40;;;;;;;10.10;61.30;93681.47;5019298;28;20201;-82
2021/12/03 07:11:52;;;;;;;12.38;5.55;;;;;;;10.03;60.96;93686.69;5023546;28;20201;-82
2021/12/03 07:14:20;;;;;;;1.33;1.02;;;;;;;10.17;61.32;93632.91;5025794;28;20344;-77
2021/12/03 07:16:47;;;;;;;5.15;1.90;;;;;;;10.31;61.99;93684.72;5022492;28;20205;-80
2021/12/03 07:19:14;;;;;;;2.58;1.60;;;;;;;10.29;61.69;93666.13;5018929;28;20208;-79
2021/12/03 07:21:41;;;;;;;10.25;3.53;;;;;;;10.71;60.73;93678.34;5031668;28;20326;-76
2021/12/03 07:24:08;;;;;;;4.05;1.60;;;;;;;10.79;59.18;93666.56;5029945;28;20208;-80
2021/12/03 07:26:35;;;;;;;7.43;2.55;;;;;;;10.72;59.68;93675.28;5027374;28;20309;-79
2021/12/03 07:29:02;;;;;;;7.35;3.08;;;;;;;10.67;60.10;93678.25;5031827;28;20196;-80
2021/12/03 07:31:30;;;;;;;4.93;2.75;;;;;;;10.60;61.01;93678.88;5031750;28;20262;-79
2021/12/03 07:33:57;;;;;;;11.05;5.68;;;;;;;10.42;60.20;93668.75;5036868;28;20215;-78
2021/12/03 07:36:25;;;;;;;8.27;3.60;;;;;;;10.41;60.14;93669.88;5040601;28;20216;-78
2021/12/03 07:38:52;;;;;;;6.03;2.28;;;;;;;10.93;59.09;93658.75;5027915;28;20212;-79
2021/12/03 07:41:18;;;;;;;8.43;3.03;;;;;;;11.27;58.52;93663.34;5023388;28;20203;-78
2021/12/03 07:43:45;;;;;;;6.63;2.90;;;;;;;11.58;58.32;93683.38;5018138;28;20612;-78
2021/12/03 07:46:15;;;;;;;2.92;1.30;;;;;;;11.97;56.77;93681.44;5020109;28;20232;-78
2021/12/03 07:48:46;;;;;;;5.53;1.88;;;;;;;12.50;55.48;93660.66;5025142;28;20205;-78
2021/12/03 07:51:14;;;;;;;3.95;2.17;;;;;;;12.48;56.03;93659.44;5032423;28;20288;-77
2021/12/03 07:53:41;;;;;;;8.50;2.38;;;;;;;12.67;56.69;93673.75;5036556;28;20192;-77
2021/12/03 07:56:08;;;;;;;4.32;2.10;;;;;;;12.75;55.02;93664.56;5033035;28;20319;-78
2021/12/03 07:58:35;;;;;;;3.85;2.33;;;;;;;12.82;54.65;93667.41;5039678;28;20291;-78
2021/12/03 08:01:02;;;;;;;3.70;1.88;;;;;;;12.66;54.94;93674.13;5034285;28;20201;-77
2021/12/03 08:03:29;;;;;;;6.65;1.95;;;;;;;12.53;54.53;93681.66;5030774;28;20687;-78
2021/12/03 08:05:59;;;;;;;5.53;1.90;;;;;;;12.60;55.40;93695.34;5031290;28;20224;-77
2021/12/03 08:08:26;;;;;;;4.03;1.27;;;;;;;12.95;54.53;93656.31;5030733;28;20201;-79
2021/12/03 08:10:55;;;;;;;6.32;1.30;;;;;;;13.17;54.43;93652.78;5031079;28;20223;-76
2021/12/03 08:13:22;;;;;;;2.75;1.52;;;;;;;13.08;53.54;93657.69;5031024;28;20250;-77
2021/12/03 08:15:49;;;;;;;5.10;2.05;;;;;;;13.14;54.73;93696.97;5030286;28;20580;-77
2021/12/03 08:18:16;;;;;;;3.83;2.03;;;;;;;13.38;53.76;93696.59;5031021;28;20215;-80
2021/12/03 08:20:43;;;;;;;5.80;2.33;;;;;;;13.42;53.87;93708.28;5029973;28;20311;-78
2021/12/03 08:23:12;;;;;;;2.42;1.05;;;;;;;13.45;52.85;93680.38;5036429;28;20558;-77
2021/12/03 08:25:39;;;;;;;5.32;1.05;;;;;;;13.38;53.16;93669.41;5033820;28;20274;-79
2021/12/03 08:28:07;;;;;;;3.10;1.60;;;;;;;13.32;53.54;93670.84;5030596;28;20208;-77
2021/12/03 08:30:33;;;;;;;6.32;1.70;;;;;;;13.34;53.46;93679.44;5029422;28;20729;-76
2021/12/03 08:33:01;;;;;;;6.50;1.95;;;;;;;13.26;53.40;93687.84;5029508;28;20948;-77
2021/12/03 08:35:28;;;;;;;4.45;2.67;;;;;;;13.40;54.68;93699.72;5041331;28;20216;-77
2021/12/03 08:37:55;;;;;;;7.80;3.95;;;;;;;13.38;53.57;93677.56;5030540;28;20652;-77
2021/12/03 08:40:23;;;;;;;6.80;2.95;;;;;;;13.50;53.36;93704.53;5030156;28;20622;-76
2021/12/03 08:42:52;;;;;;;9.10;2.92;;;;;;;13.30;53.10;93669.66;5029056;28;20221;-76
2021/12/03 08:45:20;;;;;;;5.93;1.45;;;;;;;13.40;52.76;93686.13;5029580;28;20667;-75
2021/12/03 08:47:51;;;;;;;4.18;1.60;;;;;;;13.44;52.94;93675.28;5018564;28;20709;-77
2021/12/03 08:50:26;;;;;;;5.88;1.98;;;;;;;13.53;53.30;93698.34;5024536;28;20251;-76
2021/12/03 08:55:38;;;;;;;3.55;1.35;;;;;;;13.28;53.70;93653.69;4996550;28;20721;-77
2021/12/03 08:58:05;;;;;;;6.20;2.00;;;;;;;13.27;53.50;93682.03;5038975;28;20207;-77
2021/12/03 09:00:33;;;;;;;4.72;1.75;;;;;;;13.26;53.39;93677.75;5030841;28;20212;-77
2021/12/03 09:03:00;;;;;;;6.18;1.38;;;;;;;13.33;52.56;93682.53;5028919;28;20212;-77
2021/12/03 09:05:30;;;;;;;5.78;1.58;;;;;;;13.32;52.51;93686.41;5028177;28;20609;-77
2021/12/03 09:07:57;;;;;;;6.88;2.15;;;;;;;13.38;52.47;93688.44;5029778;28;20236;-78
2021/12/03 09:10:25;;;;;;;3.97;2.22;;;;;;;13.32;52.52;93687.19;5029965;28;20200;-76
2021/12/03 09:12:54;;;;;;;8.73;2.05;;;;;;;13.45;52.43;93714.94;5030445;28;20266;-77
2021/12/03 09:15:26;;;;;;;8.57;3.50;;;;;;;13.53;53.12;93736.44;5030227;28;20201;-77
2021/12/03 09:18:05;;;;;;;3.53;1.05;;;;;;;13.30;52.45;93681.31;5030450;28;20286;-76
2021/12/03 09:20:42;;;;;;;8.32;1.60;;;;;;;13.35;53.07;93712.88;5029744;28;20228;-76
2021/12/03 09:23:13;;;;;;;5.47;1.30;;;;;;;13.17;53.37;93669.09;5030061;28;20199;-77
2021/12/03 09:25:46;;;;;;;1.48;1.00;;;;;;;13.09;53.41;93700.03;5030042;28;20208;-77
2021/12/03 09:28:14;;;;;;;1.40;0.85;;;;;;;13.17;53.70;93677.25;5029832;28;20615;-78
2021/12/03 09:30:43;;;;;;;3.40;0.95;;;;;;;13.03;53.92;93682.44;5029534;28;20200;-77
2021/12/03 09:33:13;;;;;;;4.82;1.42;;;;;;;13.10;54.12;93674.41;5029795;28;20303;-78
2021/12/03 09:35:45;;;;;;;5.82;1.95;;;;;;;13.07;54.21;93677.84;5042433;28;20458;-78
2021/12/03 09:38:13;;;;;;;9.23;4.20;;;;;;;13.13;53.41;93695.41;5030027;28;20808;-78
2021/12/03 09:40:40;;;;;;;5.45;1.30;;;;;;;13.15;52.71;93693.13;5017320;28;20204;-77
2021/12/03 09:43:07;;;;;;;5.63;1.77;;;;;;;13.19;52.64;93704.06;5018695;28;20220;-76
2021/12/03 09:45:37;;;;;;;6.45;1.40;;;;;;;13.22;52.30;93692.47;5023777;28;20232;-76
2021/12/03 09:48:14;;;;;;;9.57;1.63;;;;;;;13.19;52.56;93704.06;5022954;28;20890;-78
2021/12/03 09:50:42;;;;;;;5.55;1.13;;;;;;;13.27;52.26;93687.50;5018412;28;20196;-78
2021/12/03 09:53:22;;;;;;;6.72;2.10;;;;;;;13.31;52.39;93699.22;5028479;28;20700;-77
2021/12/03 09:55:49;;;;;;;8.52;1.50;;;;;;;13.30;52.39;93705.00;5021772;28;20270;-78
2021/12/03 09:58:29;;;;;;;6.00;1.52;;;;;;;13.29;51.98;93703.44;5033665;28;20274;-76
2021/12/03 10:01:02;;;;;;;4.25;1.83;;;;;;;13.34;52.99;93712.06;5033013;28;20671;-76
2021/12/03 10:03:48;;;;;;;5.93;2.67;;;;;;;13.42;51.51;93688.47;5033947;28;20250;-77
2021/12/03 10:14:36;;;;;;;6.55;1.40;;;;;;;13.44;51.76;93688.88;5032156;28;20488;-77
2021/12/03 10:20:08;;;;;;;5.25;1.30;;;;;;;13.66;50.51;93679.09;5015382;28;20243;-78
2021/12/03 10:25:45;;;;;;;7.07;1.42;;;;;;;13.63;50.51;93669.72;5032933;28;20286;-78
2021/12/03 10:28:44;;;;;;;4.32;1.40;;;;;;;13.55;51.18;93653.66;5040415;28;20302;-75
2021/12/03 10:34:23;;;;;;;4.68;1.38;;;;;;;13.79;50.33;93653.19;5039247;28;20254;-75
2021/12/03 10:37:00;;;;;;;5.22;1.25;;;;;;;13.90;50.26;93659.53;5040150;28;20379;-76
2021/12/03 10:42:37;;;;;;;6.53;1.20;;;;;;;14.11;48.52;93681.53;4969358;28;20217;-75
2021/12/03 10:45:18;;;;;;;6.20;1.20;;;;;;;14.20;49.40;93654.03;4968427;28;20229;-76
2021/12/03 10:47:58;;;;;;;5.65;1.70;;;;;;;14.27;48.64;93653.28;5009434;28;20219;-77
2021/12/03 10:50:41;;;;;;;3.28;1.40;;;;;;;14.19;49.44;93664.13;5041737;28;20275;-76
2021/12/03 11:02:06;;;;;;;8.32;1.98;;;;;;;14.43;47.57;93668.28;5028667;28;20201;-76
2021/12/03 11:04:58;;;;;;;6.10;1.65;;;;;;;14.43;48.40;93667.50;5026236;28;20207;-76
2021/12/03 13:12:58;;;;;;;6.13;1.80;;;;;;;13.72;48.88;93636.75;5030772;28;20246;-77
2021/12/03 14:43:24;;;;;;;5.93;2.65;;;;;;;12.55;53.24;93687.53;5008863;28;20277;-74
2021/12/03 14:46:04;;;;;;;4.88;1.90;;;;;;;12.67;51.97;93690.06;5045357;28;20270;-76
2021/12/03 14:48:42;;;;;;;6.30;1.83;;;;;;;12.82;50.81;93691.84;5037007;28;20231;-75
2021/12/03 14:54:19;;;;;;;6.57;1.95;;;;;;;12.53;52.76;93700.69;5036404;28;20318;-76
2021/12/03 14:57:06;;;;;;;9.38;2.60;;;;;;;12.58;53.46;93672.41;5034755;28;20534;-76
2021/12/03 14:59:34;;;;;;;8.20;3.95;;;;;;;12.53;54.09;93687.09;5025527;28;20200;-75
2021/12/03 15:02:08;;;;;;;9.82;4.53;;;;;;;12.30;55.17;93695.22;5019001;28;20201;-75
2021/12/03 15:07:21;;;;;;;24.83;13.50;;;;;;;12.32;55.19;93711.16;5046307;28;20611;-75
2021/12/03 15:09:49;;;;;;;14.18;6.25;;;;;;;12.24;54.92;93720.34;5031708;28;20269;-75
2021/12/03 15:15:37;;;;;;;10.15;4.38;;;;;;;12.15;54.91;93745.00;5032156;28;20219;-75
2021/12/03 15:23:53;;;;;;;30.25;17.95;;;;;;;12.03;55.27;93732.34;5029226;28;20212;-75
2021/12/03 15:26:36;;;;;;;4.60;1.58;;;;;;;12.31;54.38;93725.88;5032287;28;20203;-75
2021/12/03 15:29:35;;;;;;;6.13;2.08;;;;;;;12.30;54.91;93719.66;5032586;28;20202;-75
2021/12/03 15:32:06;;;;;;;7.85;2.58;;;;;;;12.29;55.43;93745.28;5018073;28;20291;-74
2021/12/03 15:34:47;;;;;;;5.25;2.00;;;;;;;12.24;55.78;93736.63;5037449;28;20191;-76
2021/12/03 15:37:31;;;;;;;6.57;2.33;;;;;;;12.10;56.63;93740.63;5033182;28;20196;-76
2021/12/03 15:40:20;;;;;;;10.20;2.72;;;;;;;12.11;56.84;93736.00;5018425;28;20251;-74
2021/12/03 16:04:51;;;;;;;10.90;2.35;;;;;;;12.17;56.52;93760.91;5026552;28;20579;-74
2021/12/03 16:07:30;;;;;;;13.93;3.08;;;;;;;11.95;56.79;93757.78;5023209;28;20394;-74
2021/12/03 16:10:10;;;;;;;5.57;2.08;;;;;;;11.59;59.51;93766.31;5018425;28;20681;-73
2021/12/03 16:12:51;;;;;;;7.53;3.22;;;;;;;11.08;62.30;93774.44;5030812;28;20618;-74
2021/12/03 16:15:30;;;;;;;11.13;3.75;;;;;;;10.78;63.41;93770.63;5020806;28;20678;-72
2021/12/03 16:18:21;;;;;;;8.30;3.63;;;;;;;10.49;65.18;93772.59;5030480;28;20269;-72
2021/12/03 16:23:45;;;;;;;8.23;2.70;;;;;;;10.22;66.69;93774.22;5007298;28;20212;-73
2021/12/03 16:54:06;;;;;;;6.03;2.42;;;;;;;7.79;74.43;93858.56;5030251;28;20570;-75
2021/12/03 16:56:33;;;;;;;5.30;2.90;;;;;;;7.89;74.57;93872.78;5017973;28;20211;-74
2021/12/03 16:59:01;;;;;;;10.57;3.38;;;;;;;7.78;74.92;93872.41;5038930;28;20227;-74